Cowplain, United Kingdom
Current Conditions -  °F | °C
As of 6:50 PM on Sunday 21 Dec 2014 (Local Time) from EGHI Reporting Station
Drizzle Drizzle  
Wind Chill: 50°   Ceiling: 1300
Heat Index: 50°   Visibility: 6mi
Dew Point: 48°   Wind: 15mph
Humidity: 94%   Direction: 240°WSW
Pressure: 30.27"   Gusts: NA
Location:  50.89°N, 1.02°W
Report Text: EGHI 211850Z 24013KT 9999 -DZ FEW010 BKN013 10/09 Q1025
Loading
Personal Weather Stations






























Interactive Weather Map New forecast layout! Learn more

10-Day Weather Forecast

Advertisements
Track Severe Weather on mobile